TOCAL weather

Campo di Volo Carolina
Caluso (TO), Piedmont, Italy

Public forecast

Using degrees Celsius for public forecast. Weather courtesy of forecast.io.

METAR (pilot weather report)

Closest report is Turin Airport, 11.0 nm (20.4 km) WSW. Retrieved 2019/09/23 03:20 UTC (26 minutes ago):

LIMF 230320Z VRB01KT 8000 SCT025 BKN040 14/13 Q1014

TAF (pilot weather forecast)

Forecast is more than 12 hours old.

Closest forecast is Turin Airport, 11.0 nm (20.4 km) WSW. Retrieved 2019/09/22 00:00 UTC (1 day ago):

TAF LIMF 222300Z 2300/2324 VRB05KT 9999 SCT030 BKN050 TEMPO 2301/2305 4000 RA TEMPO 2305/2308 2500 BR